Time;durP1;ratioP1;P1;durP2;ratioP2;P2;SDS_P1;SDS_P2;PMS_P1;PMS_P2;Temp;Humidity;BMP_temperature;BMP_pressure;BME280_temperature;BME280_humidity;BME280_pressure;Samples;Min_cycle;Max_cycle;Signal;HPM_P1;HPM_P2
2022/04/22 00:00:18;;;;;;;9.33;4.47;;;9.30;99.90;8.50;100159;;;;576411;245;24075;-78
2022/04/22 00:02:46;;;;;;;9.53;5.27;;;9.30;99.90;8.50;100159;;;;576285;245;24087;-77
2022/04/22 00:05:14;;;;;;;7.03;5.23;;;9.30;99.90;8.50;100161;;;;576364;245;24073;-79
2022/04/22 00:07:42;;;;;;;7.53;5.27;;;9.30;99.90;8.50;100160;;;;576177;245;24069;-78
2022/04/22 00:10:14;;;;;;;10.57;5.13;;;9.30;99.90;8.50;100163;;;;575889;246;24114;-82
2022/04/22 00:12:41;;;;;;;5.40;4.30;;;9.30;99.90;8.50;100161;;;;575553;246;24113;-81
2022/04/22 00:15:06;;;;;;;10.90;5.87;;;9.30;99.90;8.50;100158;;;;575604;246;24118;-85
2022/04/22 00:17:34;;;;;;;11.10;5.67;;;9.30;99.90;8.50;100161;;;;575766;246;24099;-82
2022/04/22 00:20:03;;;;;;;11.67;6.03;;;9.30;99.90;8.50;100155;;;;575503;246;24097;-81
2022/04/22 00:22:29;;;;;;;14.23;6.40;;;9.30;99.90;8.50;100159;;;;575238;246;24092;-77
2022/04/22 00:24:57;;;;;;;16.20;6.83;;;9.30;99.90;8.50;100160;;;;575227;246;24159;-77
2022/04/22 00:27:25;;;;;;;10.60;5.67;;;9.20;99.90;8.40;100153;;;;575289;246;24115;-79
2022/04/22 00:29:53;;;;;;;10.90;6.10;;;9.20;99.90;8.40;100156;;;;575065;246;24100;-79
2022/04/22 00:32:21;;;;;;;7.73;5.47;;;9.20;99.90;8.40;100151;;;;575084;246;24126;-79
2022/04/22 00:34:50;;;;;;;11.23;5.47;;;9.10;99.90;8.40;100155;;;;575003;246;24123;-77
2022/04/22 00:37:18;;;;;;;11.87;5.50;;;9.10;99.90;8.30;100146;;;;575005;246;25163;-77
2022/04/22 00:39:46;;;;;;;8.13;5.20;;;9.10;99.90;8.30;100149;;;;575000;246;24098;-77
2022/04/22 00:42:13;;;;;;;12.43;5.53;;;9.10;99.90;8.30;100147;;;;574997;246;24097;-77
2022/04/22 00:44:42;;;;;;;11.20;4.50;;;9.00;99.90;8.20;100149;;;;574944;246;25152;-78
2022/04/22 00:47:10;;;;;;;8.93;4.00;;;9.00;99.90;8.20;100150;;;;574936;246;24185;-79
2022/04/22 00:49:38;;;;;;;5.80;4.30;;;8.90;99.90;8.10;100147;;;;574872;246;24149;-79
2022/04/22 00:52:06;;;;;;;8.97;4.13;;;8.90;99.90;8.10;100142;;;;575002;246;24101;-78
2022/04/22 00:54:37;;;;;;;7.40;3.97;;;8.90;99.90;8.00;100135;;;;575029;246;24127;-80
2022/04/22 00:57:02;;;;;;;13.33;4.63;;;8.80;99.90;8.00;100128;;;;574789;246;24135;-79
2022/04/22 00:59:30;;;;;;;9.60;4.27;;;8.80;99.90;8.00;100136;;;;582760;245;24077;-82
2022/04/22 01:01:58;;;;;;;7.57;3.90;;;8.80;99.90;8.00;100147;;;;575314;246;24143;-80
2022/04/22 01:10:02;;;;;;;9.70;4.67;;;8.70;99.90;7.90;100142;;;;575611;245;24089;-76
2022/04/22 01:12:30;;;;;;;13.93;3.73;;;8.70;99.90;7.90;100138;;;;583833;243;24135;-78
2022/04/22 01:14:55;;;;;;;7.10;3.87;;;8.70;99.90;7.90;100136;;;;574881;245;24088;-76
2022/04/22 01:17:25;;;;;;;6.70;3.77;;;8.60;99.90;7.90;100140;;;;574695;245;24134;-77
2022/04/22 01:19:50;;;;;;;5.83;4.17;;;8.60;99.90;7.80;100142;;;;583212;245;24135;-76
2022/04/22 01:22:19;;;;;;;6.03;4.07;;;8.60;99.90;7.80;100139;;;;574937;246;24208;-81
2022/04/22 01:24:46;;;;;;;10.80;4.40;;;8.60;99.90;7.80;100140;;;;574960;246;24092;-76
2022/04/22 01:27:17;;;;;;;4.83;3.93;;;8.60;99.90;7.80;100136;;;;574843;246;24074;-77
2022/04/22 01:29:45;;;;;;;7.00;4.50;;;8.60;99.90;7.80;100140;;;;575022;246;24089;-78
2022/04/22 01:32:10;;;;;;;12.40;4.37;;;8.60;99.90;7.80;100131;;;;575291;246;24193;-79
2022/04/22 01:34:38;;;;;;;8.47;4.43;;;8.60;99.90;7.80;100135;;;;575255;246;24089;-77
2022/04/22 01:37:10;;;;;;;5.13;4.10;;;8.60;99.90;7.80;100129;;;;575225;246;24086;-80
2022/04/22 01:39:36;;;;;;;8.63;4.00;;;8.60;99.90;7.80;100127;;;;574799;246;24112;-78
2022/04/22 01:42:04;;;;;;;7.83;4.47;;;8.60;99.90;7.80;100127;;;;575027;246;24111;-80
2022/04/22 01:44:35;;;;;;;8.73;4.80;;;8.70;99.90;7.90;100126;;;;575003;246;24096;-78
2022/04/22 01:47:00;;;;;;;9.57;4.73;;;8.60;99.90;7.90;100135;;;;574898;246;24101;-78
2022/04/22 01:49:28;;;;;;;11.57;4.47;;;8.70;99.90;7.90;100138;;;;574817;246;24117;-77
2022/04/22 01:52:00;;;;;;;4.30;3.83;;;8.70;99.90;7.90;100141;;;;574482;246;24115;-77
2022/04/22 01:54:24;;;;;;;6.57;4.53;;;8.70;99.90;8.00;100143;;;;574190;246;24098;-77
2022/04/22 01:56:52;;;;;;;7.83;4.20;;;8.80;99.90;8.00;100136;;;;574617;246;24082;-79
2022/04/22 01:59:20;;;;;;;7.37;3.87;;;8.80;99.90;8.10;100141;;;;574973;246;25148;-76
2022/04/22 02:01:47;;;;;;;4.17;3.77;;;8.80;99.90;8.10;100142;;;;574542;246;24097;-76
2022/04/22 02:04:15;;;;;;;8.63;4.30;;;8.80;99.90;8.10;100147;;;;574634;246;24082;-76
2022/04/22 02:06:43;;;;;;;7.63;4.40;;;8.80;99.90;8.10;100141;;;;574676;246;24109;-77
2022/04/22 02:09:15;;;;;;;7.40;4.33;;;8.90;99.90;8.10;100135;;;;574585;246;24121;-77
2022/04/22 02:11:40;;;;;;;8.67;3.87;;;8.80;99.90;8.10;100147;;;;574499;246;24108;-77
2022/04/22 02:14:08;;;;;;;5.93;4.20;;;8.80;99.90;8.10;100136;;;;575187;243;24110;-78
2022/04/22 02:16:35;;;;;;;7.93;5.00;;;8.80;99.90;8.10;100133;;;;576453;245;24103;-79
2022/04/22 02:19:05;;;;;;;11.17;8.20;;;8.90;99.90;8.10;100129;;;;576067;245;24073;-79
2022/04/22 02:21:33;;;;;;;15.67;11.17;;;8.90;99.90;8.10;100125;;;;575882;245;24096;-78
2022/04/22 02:24:01;;;;;;;12.93;10.23;;;8.90;99.90;8.10;100133;;;;575690;245;24102;-76
2022/04/22 02:26:29;;;;;;;20.03;11.67;;;8.90;99.90;8.20;100140;;;;575351;245;24075;-77
2022/04/22 02:28:57;;;;;;;15.03;10.87;;;8.90;99.90;8.20;100135;;;;575525;245;24086;-79
2022/04/22 02:31:25;;;;;;;15.00;9.33;;;8.90;99.90;8.20;100137;;;;575044;245;24102;-78
2022/04/22 02:33:53;;;;;;;13.03;7.73;;;9.00;99.90;8.20;100134;;;;574865;246;24173;-76
2022/04/22 02:36:20;;;;;;;17.90;6.07;;;8.90;99.90;8.20;100137;;;;574949;246;24185;-79
2022/04/22 02:38:48;;;;;;;10.10;5.73;;;8.90;99.90;8.20;100145;;;;574901;246;24239;-80
2022/04/22 02:46:49;;;;;;;7.07;3.87;;;8.90;99.90;8.10;100150;;;;574868;246;24091;-77
2022/04/22 02:49:17;;;;;;;8.40;3.77;;;8.90;99.90;8.10;100152;;;;574833;246;24114;-78
2022/04/22 02:51:45;;;;;;;7.03;3.80;;;8.90;99.90;8.10;100146;;;;575133;246;24117;-76
2022/04/22 02:54:13;;;;;;;4.20;3.37;;;8.90;99.90;8.00;100148;;;;575150;246;24122;-77
2022/04/22 02:56:40;;;;;;;9.37;3.90;;;8.80;99.90;7.90;100155;;;;575160;246;24111;-80
2022/04/22 02:59:11;;;;;;;11.30;4.00;;;8.80;99.90;7.90;100153;;;;575079;246;24127;-76
2022/04/22 03:01:36;;;;;;;5.47;3.53;;;8.70;99.90;7.80;100160;;;;574794;246;24113;-77
2022/04/22 03:04:05;;;;;;;4.37;3.13;;;8.60;99.90;7.70;100162;;;;575093;246;24117;-79
2022/04/22 03:06:33;;;;;;;5.60;3.37;;;8.50;99.90;7.70;100162;;;;575074;246;24207;-81
2022/04/22 03:09:05;;;;;;;5.97;3.10;;;8.40;99.90;7.60;100165;;;;575073;246;24097;-78
2022/04/22 03:11:30;;;;;;;3.93;3.53;;;8.40;99.90;7.50;100162;;;;574906;246;24125;-77
2022/04/22 03:13:58;;;;;;;5.93;3.23;;;8.30;99.90;7.50;100172;;;;575189;246;24122;-78
2022/04/22 03:16:26;;;;;;;4.83;3.23;;;8.30;99.90;7.40;100168;;;;574743;246;24113;-77
2022/04/22 03:18:54;;;;;;;7.03;3.00;;;8.20;99.90;7.40;100159;;;;574654;246;24121;-79
2022/04/22 03:21:25;;;;;;;7.87;3.07;;;8.10;99.90;7.40;100164;;;;574815;246;24202;-78
2022/04/22 03:23:50;;;;;;;6.30;3.10;;;8.10;99.90;7.40;100163;;;;579511;246;24101;-82
2022/04/22 03:26:19;;;;;;;4.10;3.10;;;8.10;99.90;7.30;100167;;;;575773;245;24103;-77
2022/04/22 03:28:47;;;;;;;3.30;3.00;;;8.10;99.90;7.30;100161;;;;576081;245;24084;-77
2022/04/22 03:31:15;;;;;;;5.60;3.20;;;8.00;99.90;7.30;100167;;;;576217;245;24084;-78
2022/04/22 03:33:43;;;;;;;5.53;2.90;;;8.00;99.90;7.30;100162;;;;575660;245;24086;-79
2022/04/22 03:36:12;;;;;;;4.23;3.13;;;8.00;99.90;7.20;100163;;;;575426;245;24063;-76
2022/04/22 03:38:40;;;;;;;4.17;2.93;;;8.00;99.90;7.20;100162;;;;575205;245;24132;-77
2022/04/22 03:41:07;;;;;;;5.83;3.23;;;8.00;99.90;7.30;100161;;;;575634;245;24099;-80
2022/04/22 03:43:35;;;;;;;3.67;2.80;;;8.00;99.90;7.30;100167;;;;575656;245;24082;-77
2022/04/22 03:46:03;;;;;;;3.80;3.20;;;8.00;99.90;7.30;100164;;;;575458;246;24102;-80
2022/04/22 03:48:31;;;;;;;5.73;3.80;;;8.10;99.90;7.30;100169;;;;575396;246;24151;-77
2022/04/22 03:50:58;;;;;;;9.43;3.47;;;8.10;99.90;7.30;100169;;;;575187;246;24191;-78
2022/04/22 03:53:31;;;;;;;7.13;2.97;;;8.00;99.90;7.30;100168;;;;575099;246;24164;-78
2022/04/22 03:58:10;;;;;;;5.07;3.23;;;8.10;99.90;7.30;100174;;;;575041;246;24199;-78
2022/04/22 03:58:25;;;;;;;3.70;3.37;;;8.10;99.90;7.30;100168;;;;573795;246;24136;-78
2022/04/22 04:00:54;;;;;;;4.80;3.47;;;8.00;99.90;7.30;100168;;;;575624;246;24152;-77
2022/04/22 04:03:25;;;;;;;5.63;3.17;;;8.10;99.90;7.30;100181;;;;575279;246;24101;-77
2022/04/22 04:05:52;;;;;;;4.00;3.23;;;8.10;99.90;7.40;100167;;;;581041;246;24130;-77
2022/04/22 04:08:24;;;;;;;4.60;3.03;;;8.10;99.90;7.40;100175;;;;575150;246;24093;-77
2022/04/22 04:16:23;;;;;;;2.80;2.40;;;8.30;99.90;7.80;100181;;;;575427;246;24110;-76
2022/04/22 04:18:50;;;;;;;6.23;3.30;;;8.50;99.90;8.10;100171;;;;575381;246;24086;-77
2022/04/22 04:24:03;;;;;;;2.93;2.20;;;9.00;99.90;8.70;100183;;;;575665;246;24126;-78
2022/04/22 04:26:33;;;;;;;4.40;2.40;;;9.50;99.90;8.90;100198;;;;575606;246;24102;-75
2022/04/22 04:29:00;;;;;;;4.60;1.13;;;9.50;99.90;9.10;100198;;;;575432;246;25138;-79
2022/04/22 04:31:28;;;;;;;2.67;2.40;;;9.80;99.90;9.30;100198;;;;575750;246;24085;-77
2022/04/22 04:33:56;;;;;;;3.40;1.70;;;10.00;99.90;10.10;100190;;;;575378;246;24159;-77
2022/04/22 04:36:24;;;;;;;4.57;2.73;;;10.70;99.90;11.20;100205;;;;575324;246;24104;-78
2022/04/22 04:38:52;;;;;;;6.97;2.40;;;11.70;99.90;11.90;100210;;;;576506;245;24092;-78
2022/04/22 04:41:20;;;;;;;3.83;2.30;;;12.40;99.90;13.20;100214;;;;576233;245;24151;-78
2022/04/22 04:43:48;;;;;;;8.83;1.97;;;13.70;99.90;14.50;100210;;;;576170;245;24073;-76
2022/04/22 04:46:16;;;;;;;1.90;1.80;;;15.00;99.90;15.30;100209;;;;576064;245;24067;-76
2022/04/22 04:48:44;;;;;;;2.17;1.97;;;16.00;99.90;16.10;100207;;;;575814;245;24146;-77
2022/04/22 04:51:11;;;;;;;2.23;1.70;;;16.80;99.90;17.10;100211;;;;575777;245;24119;-78
2022/04/22 04:53:39;;;;;;;2.10;1.80;;;17.70;99.60;17.40;100226;;;;576214;245;24144;-80
2022/04/22 04:56:08;;;;;;;2.63;1.87;;;18.30;95.10;18.10;100222;;;;576113;246;24092;-76
2022/04/22 04:58:35;;;;;;;2.30;2.10;;;18.90;93.00;18.70;100225;;;;575377;246;24095;-78
2022/04/22 05:01:03;;;;;;;2.17;1.90;;;19.50;90.30;19.20;100223;;;;575615;246;24180;-76
2022/04/22 05:03:31;;;;;;;2.83;2.20;;;20.10;84.20;19.30;100241;;;;575806;246;23109;-79
2022/04/22 05:06:00;;;;;;;2.37;2.17;;;20.40;80.20;19.60;100238;;;;575700;246;24105;-78
2022/04/22 05:08:30;;;;;;;2.30;1.50;;;20.60;78.00;20.10;100238;;;;575689;246;24174;-78
2022/04/22 05:10:56;;;;;;;2.30;1.73;;;21.00;75.40;20.10;100239;;;;575629;246;24094;-79
2022/04/22 05:13:24;;;;;;;2.63;1.70;;;21.20;73.20;20.10;100247;;;;575966;246;24070;-78
2022/04/22 05:15:53;;;;;;;5.60;1.80;;;21.30;72.00;20.40;100253;;;;575387;246;24108;-77
2022/04/22 05:18:21;;;;;;;1.93;1.73;;;21.40;70.80;20.70;100248;;;;574484;246;24084;-77
2022/04/22 05:20:51;;;;;;;2.33;1.90;;;21.60;69.60;21.30;100255;;;;575314;246;24062;-77
2022/04/22 05:23:21;;;;;;;2.93;1.73;;;22.60;65.50;21.60;100254;;;;575434;246;24069;-78
2022/04/22 05:25:51;;;;;;;1.60;1.50;;;22.50;65.30;21.70;100254;;;;575627;246;24093;-77
2022/04/22 05:28:16;;;;;;;1.60;1.50;;;22.70;64.30;22.40;100260;;;;575203;246;24127;-83
2022/04/22 05:33:33;;;;;;;1.40;1.40;;;23.70;60.50;23.10;100254;;;;576077;246;24137;-81
2022/04/22 05:36:00;;;;;;;1.87;1.77;;;23.90;58.40;22.60;100263;;;;575934;246;24085;-85
2022/04/22 05:38:29;;;;;;;2.33;1.73;;;23.80;58.30;22.20;100257;;;;576128;246;24062;-83
2022/04/22 05:40:57;;;;;;;2.13;1.20;;;23.50;59.10;22.90;100262;;;;576063;246;24153;-78
2022/04/22 05:43:25;;;;;;;2.60;1.50;;;23.80;58.40;23.20;100253;;;;576014;246;24187;-83
2022/04/22 05:45:53;;;;;;;1.70;1.47;;;24.10;57.80;23.90;100253;;;;575972;246;24062;-86
2022/04/22 05:48:22;;;;;;;1.80;1.70;;;24.70;56.70;24.60;100257;;;;575957;246;24068;-77
2022/04/22 05:50:50;;;;;;;5.63;1.83;;;25.30;55.60;25.10;100252;;;;577130;245;24134;-78
2022/04/22 05:53:19;;;;;;;1.87;1.70;;;25.80;54.30;25.80;100263;;;;576834;245;23122;-79
2022/04/22 05:55:47;;;;;;;2.20;1.60;;;26.40;53.40;26.70;100267;;;;576400;245;24144;-81
2022/04/22 05:58:15;;;;;;;1.70;1.60;;;27.20;51.90;27.10;100269;;;;576369;245;23110;-78
2022/04/22 06:00:43;;;;;;;3.17;1.93;;;27.80;50.50;26.80;100272;;;;575417;245;24138;-77
2022/04/22 06:03:11;;;;;;;2.00;1.90;;;27.80;49.90;27.20;100282;;;;576078;245;23075;-80
2022/04/22 06:05:42;;;;;;;1.70;1.60;;;28.00;49.50;27.30;100299;;;;576344;245;23155;-83
2022/04/22 06:10:54;;;;;;;3.90;2.00;;;27.90;48.90;26.40;100294;;;;576415;246;24077;-83
2022/04/22 06:13:25;;;;;;;4.70;2.50;;;27.60;48.70;25.50;100294;;;;575784;246;23075;-80
2022/04/22 06:15:55;;;;;;;2.53;2.33;;;27.00;49.40;25.30;100287;;;;575708;246;23097;-82
2022/04/22 06:18:19;;;;;;;2.50;2.30;;;26.50;50.20;25.60;100280;;;;575854;246;24074;-79
2022/04/22 06:20:50;;;;;;;5.30;1.83;;;26.40;50.80;26.80;100288;;;;575962;246;24114;-80
2022/04/22 06:23:16;;;;;;;2.10;1.90;;;27.20;50.30;27.90;100289;;;;575453;246;24339;-79
2022/04/22 06:25:47;;;;;;;4.17;1.83;;;28.30;48.50;27.80;100288;;;;575513;246;23111;-79
2022/04/22 06:28:15;;;;;;;4.33;2.00;;;28.70;47.30;27.90;100288;;;;575470;246;23091;-80
2022/04/22 06:30:41;;;;;;;1.80;1.70;;;28.80;47.00;28.60;100303;;;;574989;246;24071;-78
2022/04/22 06:33:12;;;;;;;2.70;1.70;;;29.30;46.20;28.30;100286;;;;575153;246;23131;-81
2022/04/22 06:35:40;;;;;;;1.83;1.80;;;29.30;45.70;28.40;100284;;;;575578;246;24108;-80
2022/04/22 06:38:06;;;;;;;2.03;1.87;;;29.30;45.70;28.50;100291;;;;576011;246;24096;-79
2022/04/22 06:46:05;;;;;;;1.47;1.43;;;30.00;44.90;28.70;100302;;;;575721;246;23083;-78
2022/04/22 06:48:35;;;;;;;2.70;1.57;;;29.70;44.80;27.20;100303;;;;575890;246;23084;-81
2022/04/22 06:51:06;;;;;;;1.77;1.60;;;28.80;45.40;24.60;100303;;;;575299;246;24184;-79
2022/04/22 06:53:32;;;;;;;2.90;1.70;;;26.80;47.60;22.20;100308;;;;574824;246;23142;-78
2022/04/22 06:56:01;;;;;;;4.20;2.00;;;24.50;50.80;20.20;100311;;;;573911;246;24113;-77
2022/04/22 06:58:33;;;;;;;2.80;1.60;;;22.50;54.80;19.30;100311;;;;574538;246;24118;-76
2022/04/22 07:01:04;;;;;;;1.77;1.67;;;20.50;59.50;19.40;100313;;;;584354;244;24089;-78
2022/04/22 07:03:31;;;;;;;3.40;1.83;;;19.60;62.10;18.30;100298;;;;575800;245;24078;-77
2022/04/22 07:06:02;;;;;;;3.10;2.00;;;19.50;62.00;17.20;100304;;;;584823;245;24086;-81
2022/04/22 07:08:27;;;;;;;4.63;1.87;;;18.60;65.00;16.30;100295;;;;575664;245;24129;-80
2022/04/22 07:10:55;;;;;;;1.70;1.60;;;17.60;68.10;16.00;100288;;;;575290;245;24085;-77
2022/04/22 07:13:24;;;;;;;3.40;2.27;;;17.10;70.70;15.50;100297;;;;575016;245;24101;-76
2022/04/22 07:15:52;;;;;;;2.20;2.10;;;16.60;72.60;15.10;100294;;;;574946;245;24108;-77
2022/04/22 07:18:23;;;;;;;8.37;2.57;;;16.10;75.00;14.80;100296;;;;580388;245;24187;-79
2022/04/22 07:20:49;;;;;;;2.00;1.90;;;16.10;77.30;15.60;100283;;;;574484;246;27329;-76
2022/04/22 07:23:22;;;;;;;1.97;1.87;;;16.60;76.00;16.10;100291;;;;583570;246;24103;-80
2022/04/22 07:25:48;;;;;;;2.07;1.97;;;16.60;76.00;16.10;100285;;;;583358;246;24176;-78
2022/04/22 07:28:14;;;;;;;1.63;1.53;;;16.80;74.20;16.00;100293;;;;574530;246;25413;-77
2022/04/22 07:30:46;;;;;;;1.70;1.60;;;16.60;75.20;15.70;100298;;;;583530;246;24102;-77
2022/04/22 07:33:15;;;;;;;2.70;2.47;;;16.10;77.30;15.10;100293;;;;574404;246;24143;-79
2022/04/22 07:35:43;;;;;;;2.90;1.87;;;16.00;77.10;14.70;100309;;;;583707;246;24078;-78
2022/04/22 07:38:10;;;;;;;4.97;2.37;;;15.70;79.70;14.40;100305;;;;574900;246;24122;-80
2022/04/22 07:40:40;;;;;;;2.20;1.97;;;15.30;82.50;14.50;100293;;;;584045;246;24070;-81
2022/04/22 07:48:36;;;;;;;1.60;1.50;;;15.20;86.10;14.70;100317;;;;575643;246;24062;-80
2022/04/22 07:51:04;;;;;;;2.53;1.60;;;15.40;84.40;14.80;100298;;;;575251;246;24282;-79
2022/04/22 07:53:36;;;;;;;1.87;1.70;;;15.50;84.10;15.30;100296;;;;574908;246;24091;-80
2022/04/22 07:56:04;;;;;;;1.20;1.20;;;15.80;83.80;16.10;100306;;;;574813;246;24149;-77
2022/04/22 07:58:29;;;;;;;5.50;1.93;;;16.60;78.90;15.60;100304;;;;573984;246;24082;-80
2022/04/22 08:00:56;;;;;;;1.70;1.57;;;16.50;78.30;15.90;100309;;;;574797;246;24098;-76
2022/04/22 08:03:24;;;;;;;1.90;1.80;;;16.60;79.20;16.00;100304;;;;574638;246;24078;-79
2022/04/22 08:05:52;;;;;;;1.77;1.40;;;16.80;78.10;16.20;100299;;;;574421;246;24081;-81
2022/04/22 08:08:20;;;;;;;3.70;1.73;;;16.90;77.60;16.00;100302;;;;574556;246;24137;-77
2022/04/22 08:10:48;;;;;;;1.70;1.60;;;16.90;77.60;15.90;100288;;;;574449;246;24089;-77
2022/04/22 08:13:15;;;;;;;1.30;1.30;;;16.80;78.00;16.30;100288;;;;575431;245;24170;-80
2022/04/22 08:15:43;;;;;;;1.50;1.40;;;17.00;77.90;18.40;100292;;;;575645;245;24074;-79
2022/04/22 08:18:11;;;;;;;3.37;1.50;;;18.50;75.00;20.50;100294;;;;575104;245;24079;-78
2022/04/22 08:20:39;;;;;;;22.77;3.83;;;20.60;67.70;20.00;100288;;;;575277;245;24066;-77
2022/04/22 08:23:07;;;;;;;3.67;2.10;;;20.90;63.00;20.80;100300;;;;575043;245;24086;-79
2022/04/22 08:25:38;;;;;;;2.43;1.27;;;21.40;62.20;22.90;100297;;;;575159;245;24096;-80
2022/04/22 08:28:03;;;;;;;1.57;1.50;;;23.10;59.30;24.00;100304;;;;580951;245;24093;-82
2022/04/22 08:30:35;;;;;;;1.80;1.70;;;24.50;56.70;25.90;100307;;;;574715;246;24218;-79
2022/04/22 08:33:01;;;;;;;5.03;2.03;;;26.40;53.10;26.40;100295;;;;574613;246;24126;-76
2022/04/22 08:35:27;;;;;;;1.53;1.43;;;27.30;50.40;27.50;100303;;;;574529;246;23091;-79
2022/04/22 08:37:58;;;;;;;1.67;1.67;;;28.30;48.30;26.80;100298;;;;575137;246;24093;-78
2022/04/22 08:40:26;;;;;;;1.80;1.70;;;28.20;47.70;27.70;100303;;;;575088;246;23094;-77
2022/04/22 08:42:50;;;;;;;1.87;1.77;;;28.60;47.50;29.20;100311;;;;575219;246;23112;-78
2022/04/22 08:45:18;;;;;;;1.80;1.70;;;29.90;46.40;29.10;100314;;;;575595;246;24084;-82
2022/04/22 08:50:32;;;;;;;2.47;1.67;;;29.40;45.50;27.70;100322;;;;574593;246;23114;-79
2022/04/22 08:53:09;;;;;;;2.43;2.00;;;29.10;44.60;27.60;100312;;;;574261;246;24099;-78
2022/04/22 08:55:34;;;;;;;2.07;1.97;;;29.00;45.10;27.90;100307;;;;574124;246;23100;-81
2022/04/22 08:58:06;;;;;;;3.50;1.90;;;29.10;45.10;27.30;100306;;;;569379;246;35320;-83
2022/04/22 09:00:30;;;;;;;2.00;1.90;;;28.90;45.10;25.90;100307;;;;573943;246;23097;-80
2022/04/22 09:02:59;;;;;;;2.77;2.50;;;27.20;47.20;25.60;100310;;;;579327;246;24116;-79
2022/04/22 09:05:29;;;;;;;2.03;1.80;;;27.10;47.10;24.40;100313;;;;574484;246;23122;-79
2022/04/22 09:07:54;;;;;;;1.97;1.87;;;26.10;48.20;23.50;100307;;;;574045;246;26290;-83
2022/04/22 09:10:22;;;;;;;2.30;2.10;;;25.00;51.50;25.00;100311;;;;574914;246;23139;-80
2022/04/22 09:12:53;;;;;;;2.60;2.40;;;25.60;52.40;27.10;100302;;;;574531;246;23097;-77
2022/04/22 09:15:27;;;;;;;2.47;2.17;;;27.50;48.00;26.80;100308;;;;574302;246;23108;-79
2022/04/22 09:18:00;;;;;;;2.60;2.20;;;28.00;47.80;25.20;100305;;;;574318;246;23080;-79
2022/04/22 09:20:25;;;;;;;2.00;1.87;;;27.10;48.40;24.10;100312;;;;580107;246;23104;-77
2022/04/22 09:22:50;;;;;;;2.47;2.27;;;26.10;50.10;23.30;100312;;;;574174;246;24075;-80
2022/04/22 09:25:25;;;;;;;5.77;2.30;;;25.10;51.20;24.10;100308;;;;575693;245;24096;-83
2022/04/22 09:27:53;;;;;;;5.30;2.07;;;26.30;50.40;25.40;100309;;;;575600;245;23082;-77
2022/04/22 09:30:21;;;;;;;2.60;2.40;;;26.20;50.30;26.90;100315;;;;574095;245;24153;-79
2022/04/22 09:32:49;;;;;;;2.60;2.30;;;27.80;48.10;27.60;100306;;;;575120;245;23087;-81
2022/04/22 09:35:20;;;;;;;4.50;2.43;;;28.60;46.90;28.30;100304;;;;564665;250;23139;-79
2022/04/22 09:43:38;;;;;;;2.47;2.28;;;32.00;42.60;29.90;100308;;;;575015;246;23102;-79
2022/04/22 09:46:07;;;;;;;2.97;2.65;;;30.30;42.60;27.90;100310;;;;573104;248;23115;-78
2022/04/22 09:48:44;;;;;;;2.50;2.28;;;29.00;44.40;27.00;100307;;;;574940;246;24070;-79
2022/04/22 09:51:30;;;;;;;4.13;2.63;;;29.00;44.40;27.30;100306;;;;563921;250;23204;-76
2022/04/22 09:54:01;;;;;;;2.47;2.23;;;29.00;44.50;28.20;100303;;;;574415;246;23130;-78
2022/04/22 09:56:29;;;;;;;3.00;2.30;;;29.60;44.10;29.60;100310;;;;570171;250;23127;-81
2022/04/22 09:59:00;;;;;;;2.87;2.62;;;30.80;42.80;29.90;100304;;;;574415;246;23100;-78
2022/04/22 10:01:25;;;;;;;9.98;2.78;;;31.60;41.70;29.50;100308;;;;574247;246;24161;-77
2022/04/22 10:03:53;;;;;;;2.87;2.50;;;31.60;41.20;28.90;100316;;;;574228;246;23122;-77
2022/04/22 10:06:20;;;;;;;2.78;2.20;;;31.30;40.90;27.60;100312;;;;574216;246;24079;-77
2022/04/22 10:08:49;;;;;;;4.20;2.13;;;30.30;41.60;25.50;100313;;;;574385;246;23138;-77
2022/04/22 10:11:17;;;;;;;3.63;2.57;;;28.40;43.60;23.40;100306;;;;574081;246;23152;-78
2022/04/22 10:13:47;;;;;;;3.53;2.87;;;26.30;45.60;21.50;100320;;;;574394;246;23095;-78
2022/04/22 10:16:15;;;;;;;3.83;2.97;;;24.30;48.90;20.20;100309;;;;574922;246;24154;-80
2022/04/22 10:18:43;;;;;;;4.20;2.97;;;22.50;52.30;19.50;100307;;;;574840;246;24106;-78
2022/04/22 10:21:11;;;;;;;4.13;2.90;;;21.30;54.80;18.70;100307;;;;583623;243;24088;-84
2022/04/22 10:23:39;;;;;;;5.07;2.73;;;20.40;56.20;18.00;100307;;;;574659;246;24144;-77
2022/04/22 10:26:07;;;;;;;4.63;3.03;;;19.50;57.60;17.30;100306;;;;579694;246;24085;-82
2022/04/22 10:28:39;;;;;;;2.90;2.70;;;18.20;61.00;16.90;100311;;;;574355;246;24113;-78
2022/04/22 10:31:03;;;;;;;11.17;3.10;;;18.10;61.00;16.40;100312;;;;574440;246;24131;-79
2022/04/22 10:33:41;;;;;;;3.17;2.87;;;17.70;62.50;16.00;100324;;;;574205;246;24070;-80
2022/04/22 10:36:12;;;;;;;3.40;3.00;;;16.70;67.10;15.70;100317;;;;580654;245;24131;-76
2022/04/22 10:38:42;;;;;;;3.10;2.90;;;16.70;67.10;15.40;100302;;;;575591;245;24117;-78
2022/04/22 10:41:20;;;;;;;10.33;3.40;;;16.40;68.70;15.10;100296;;;;575322;245;24145;-81
2022/04/22 10:49:17;;;;;;;3.30;3.00;;;15.20;71.80;14.20;100297;;;;574943;245;24151;-85
2022/04/22 10:52:19;;;;;;;3.23;2.93;;;15.00;73.40;14.00;100297;;;;574809;245;24068;-82
2022/04/22 10:54:52;;;;;;;4.93;3.10;;;14.80;74.00;13.80;100297;;;;574849;246;24083;-77
2022/04/22 10:57:23;;;;;;;2.80;2.57;;;14.50;74.40;13.60;100295;;;;574378;246;24099;-78
2022/04/22 11:00:10;;;;;;;5.73;3.87;;;14.30;75.10;13.50;100307;;;;569478;246;36354;-79
2022/04/22 11:02:37;;;;;;;6.00;3.87;;;14.20;76.40;13.30;100297;;;;574643;246;24096;-84
2022/04/22 11:05:20;;;;;;;6.60;3.30;;;14.00;78.20;13.30;100294;;;;574751;246;24079;-82
2022/04/22 11:07:58;;;;;;;3.50;3.07;;;14.00;79.90;13.20;100296;;;;574760;246;25209;-83
2022/04/22 11:10:30;;;;;;;3.73;3.40;;;13.90;79.80;13.20;100299;;;;574704;246;24099;-81
2022/04/22 11:12:57;;;;;;;7.67;3.47;;;13.80;80.60;13.10;100291;;;;570499;246;24107;-79
2022/04/22 11:15:50;;;;;;;6.63;3.40;;;13.70;79.50;13.00;100294;;;;574418;246;24141;-80
2022/04/22 11:18:16;;;;;;;6.43;3.90;;;13.70;79.50;12.90;100294;;;;574284;246;24142;-80
2022/04/22 11:20:43;;;;;;;7.50;3.23;;;13.60;79.80;12.80;100279;;;;574194;246;24127;-80
2022/04/22 11:23:14;;;;;;;4.50;3.60;;;13.50;78.70;12.80;100284;;;;573553;246;24200;-79
2022/04/22 11:25:46;;;;;;;5.17;4.00;;;13.50;80.60;12.80;100284;;;;574479;246;24116;-77
2022/04/22 11:28:16;;;;;;;4.40;3.13;;;13.50;78.80;12.70;100281;;;;574370;246;24081;-79
2022/04/22 11:30:41;;;;;;;3.17;2.97;;;13.40;79.10;12.70;100288;;;;582936;246;24188;-78
2022/04/22 11:33:24;;;;;;;4.53;3.50;;;13.40;78.80;12.60;100274;;;;574502;246;24106;-79
2022/04/22 11:36:01;;;;;;;5.67;3.10;;;13.30;77.50;12.60;100268;;;;574045;246;24079;-81
2022/04/22 11:38:19;;;;;;;3.90;3.50;;;13.20;79.40;12.60;100286;;;;573192;246;24121;-78
2022/04/22 11:40:49;;;;;;;6.07;3.50;;;13.30;78.80;12.60;100276;;;;574512;246;24139;-84
2022/04/22 11:43:15;;;;;;;8.87;4.00;;;13.20;79.30;12.60;100284;;;;574410;246;24082;-79
2022/04/22 11:45:46;;;;;;;6.20;3.37;;;13.20;81.30;12.60;100269;;;;574503;246;25161;-79
2022/04/22 11:48:11;;;;;;;4.20;3.47;;;13.20;80.60;12.60;100254;;;;573832;245;24084;-80
2022/04/22 11:50:40;;;;;;;9.07;5.00;;;13.30;82.00;12.70;100265;;;;570060;245;35331;-78
2022/04/22 11:53:17;;;;;;;7.87;4.13;;;13.30;82.00;12.70;100255;;;;575076;245;24157;-78
2022/04/22 11:55:44;;;;;;;7.20;3.60;;;13.30;82.60;12.70;100265;;;;574706;245;24099;-77
2022/04/22 11:58:12;;;;;;;8.10;4.67;;;13.30;80.90;12.60;100257;;;;574902;245;24182;-82
2022/04/22 12:06:17;;;;;;;8.27;3.50;;;13.20;79.70;12.60;100259;;;;576071;246;24092;-77
2022/04/22 12:08:56;;;;;;;4.60;3.70;;;13.20;78.80;12.50;100260;;;;575071;246;24085;-81
2022/04/22 12:11:24;;;;;;;5.40;4.20;;;13.20;79.70;12.60;100265;;;;580472;246;24201;-78
2022/04/22 12:13:49;;;;;;;4.30;3.90;;;13.20;79.30;12.60;100261;;;;575076;246;24113;-79
2022/04/22 12:16:26;;;;;;;3.53;3.23;;;13.20;78.60;12.50;100248;;;;574828;246;24077;-79